Time,TemperatureF,DewpointF,PressureIn,WindDirection,WindDirectionDegrees,WindSpeedMPH,WindSpeedGustMPH,Humidity,HourlyPrecipIn,Conditions,Clouds,dailyrainin,SoftwareType,DateUTC
2013-04-15 00:03:00,35.0,35.0,-100.00,North,0,0.0,-999.0,99,-99.99,,,-99.99,,2013-04-15 05:03:00,
2013-04-15 00:12:00,36.0,36.0,-100.00,North,0,0.0,-999.0,99,-99.99,,,-99.99,,2013-04-15 05:12:00,
2013-04-15 00:23:00,36.0,34.0,-100.00,North,0,0.0,-999.0,91,-99.99,,,-99.99,,2013-04-15 05:23:00,
2013-04-15 00:33:00,36.0,34.0,-100.00,North,0,0.0,-999.0,90,-99.99,,,-99.99,,2013-04-15 05:33:00,
2013-04-15 00:42:00,36.0,33.0,-100.00,North,0,0.0,-999.0,89,-99.99,,,-99.99,,2013-04-15 05:42:00,
2013-04-15 00:52:00,35.0,33.0,-100.00,North,0,0.0,-999.0,91,-99.99,,,-99.99,,2013-04-15 05:52:00,
2013-04-15 01:02:00,35.0,33.0,-100.00,North,0,0.0,-999.0,89,-99.99,,,-99.99,,2013-04-15 06:02:00,
2013-04-15 01:12:00,35.0,32.0,-100.00,North,0,0.0,-999.0,90,-99.99,,,-99.99,,2013-04-15 06:12:00,
2013-04-15 01:22:00,35.0,32.0,-100.00,North,0,0.0,-999.0,89,-99.99,,,-99.99,,2013-04-15 06:22:00,
2013-04-15 01:33:00,35.0,33.0,-100.00,North,0,0.0,-999.0,90,-99.99,,,-99.99,,2013-04-15 06:33:00,
2013-04-15 01:42:00,36.0,32.0,-100.00,West,273,0.0,-999.0,87,-99.99,,,-99.99,,2013-04-15 06:42:00,
2013-04-15 01:52:00,36.0,32.0,-100.00,North,0,0.0,-999.0,85,-99.99,,,-99.99,,2013-04-15 06:52:00,
2013-04-15 02:02:00,35.0,31.0,-100.00,North,0,0.0,-999.0,86,-99.99,,,-99.99,,2013-04-15 07:02:00,
2013-04-15 02:41:00,35.0,29.0,-100.00,North,0,0.0,-999.0,78,-99.99,,,-99.99,,2013-04-15 07:41:00,
2013-04-15 02:52:00,34.0,26.0,-100.00,North,0,0.0,-999.0,74,-99.99,,,-99.99,,2013-04-15 07:52:00,
2013-04-15 03:02:00,34.0,27.0,-100.00,North,0,0.0,-999.0,75,-99.99,,,-99.99,,2013-04-15 08:02:00,
2013-04-15 03:13:00,33.0,27.0,-100.00,WNW,283,0.0,-999.0,77,-99.99,,,-99.99,,2013-04-15 08:13:00,
2013-04-15 03:22:00,33.0,27.0,-100.00,North,0,0.0,-999.0,79,-99.99,,,-99.99,,2013-04-15 08:22:00,
2013-04-15 03:33:00,33.0,26.0,-100.00,North,0,0.0,-999.0,77,-99.99,,,-99.99,,2013-04-15 08:33:00,
2013-04-15 03:42:00,33.0,26.0,-100.00,North,0,0.0,-999.0,76,-99.99,,,-99.99,,2013-04-15 08:42:00,
2013-04-15 03:52:00,33.0,26.0,-100.00,WNW,300,0.0,-999.0,77,-99.99,,,-99.99,,2013-04-15 08:52:00,
2013-04-15 04:03:00,33.0,26.0,-100.00,WNW,285,0.0,-999.0,75,-99.99,,,-99.99,,2013-04-15 09:03:00,
2013-04-15 04:12:00,32.0,25.0,-100.00,North,0,0.0,-999.0,75,-99.99,,,-99.99,,2013-04-15 09:12:00,
2013-04-15 04:23:00,32.0,25.0,-100.00,North,0,0.0,-999.0,75,-99.99,,,-99.99,,2013-04-15 09:23:00,
2013-04-15 04:32:00,32.0,25.0,-100.00,North,0,0.0,-999.0,75,-99.99,,,-99.99,,2013-04-15 09:32:00,
2013-04-15 04:43:00,31.0,25.0,-100.00,North,0,0.0,-999.0,78,-99.99,,,-99.99,,2013-04-15 09:43:00,
2013-04-15 04:53:00,31.0,25.0,-100.00,North,0,0.0,-999.0,80,-99.99,,,-99.99,,2013-04-15 09:53:00,
2013-04-15 05:02:00,31.0,25.0,-100.00,North,0,0.0,-999.0,80,-99.99,,,-99.99,,2013-04-15 10:02:00,
2013-04-15 05:13:00,31.0,24.0,-100.00,North,0,0.0,-999.0,76,-99.99,,,-99.99,,2013-04-15 10:13:00,
2013-04-15 05:23:00,31.0,22.0,-100.00,West,279,1.0,-999.0,71,-99.99,,,-99.99,,2013-04-15 10:23:00,
2013-04-15 05:33:00,30.0,10.0,-100.00,North,0,0.0,-999.0,41,-99.99,,,-99.99,,2013-04-15 10:33:00,
2013-04-15 05:42:00,30.0,22.0,-100.00,North,0,0.0,-999.0,72,-99.99,,,-99.99,,2013-04-15 10:42:00,
2013-04-15 05:52:00,30.0,23.0,-100.00,North,0,0.0,-999.0,74,-99.99,,,-99.99,,2013-04-15 10:52:00,
2013-04-15 06:03:00,30.0,23.0,-100.00,North,0,0.0,-999.0,77,-99.99,,,-99.99,,2013-04-15 11:03:00,
2013-04-15 06:12:00,30.0,23.0,-100.00,North,0,0.0,-999.0,75,-99.99,,,-99.99,,2013-04-15 11:12:00,
2013-04-15 06:22:00,29.0,23.0,-100.00,North,0,0.0,-999.0,77,-99.99,,,-99.99,,2013-04-15 11:22:00,
2013-04-15 06:32:00,29.0,23.0,-100.00,North,0,0.0,-999.0,79,-99.99,,,-99.99,,2013-04-15 11:32:00,
2013-04-15 06:43:00,29.0,24.0,-100.00,North,0,0.0,-999.0,80,-99.99,,,-99.99,,2013-04-15 11:43:00,
2013-04-15 06:53:00,29.0,23.0,-100.00,North,0,0.0,-999.0,80,-99.99,,,-99.99,,2013-04-15 11:53:00,
2013-04-15 07:04:00,29.0,23.0,-100.00,North,0,0.0,-999.0,78,-99.99,,,-99.99,,2013-04-15 12:04:00,
2013-04-15 07:14:00,28.0,22.0,-100.00,North,0,0.0,-999.0,76,-99.99,,,-99.99,,2013-04-15 12:14:00,
2013-04-15 07:23:00,28.0,22.0,-100.00,North,0,0.0,-999.0,77,-99.99,,,-99.99,,2013-04-15 12:23:00,
2013-04-15 07:33:00,28.0,21.0,-100.00,North,0,0.0,-999.0,75,-99.99,,,-99.99,,2013-04-15 12:33:00,
2013-04-15 07:43:00,29.0,25.0,-100.00,North,0,0.0,-999.0,86,-99.99,,,-99.99,,2013-04-15 12:43:00,
2013-04-15 07:53:00,29.0,26.0,-100.00,North,0,0.0,-999.0,87,-99.99,,,-99.99,,2013-04-15 12:53:00,
2013-04-15 08:04:00,29.0,26.0,-100.00,North,0,0.0,-999.0,86,-99.99,,,-99.99,,2013-04-15 13:04:00,
2013-04-15 08:12:00,30.0,26.0,-100.00,North,0,0.0,-999.0,86,-99.99,,,-99.99,,2013-04-15 13:12:00,
2013-04-15 08:23:00,30.0,27.0,-100.00,North,0,0.0,-999.0,88,-99.99,,,-99.99,,2013-04-15 13:23:00,
2013-04-15 08:33:00,30.0,27.0,-100.00,North,0,0.0,-999.0,89,-99.99,,,-99.99,,2013-04-15 13:33:00,
2013-04-15 08:43:00,30.0,27.0,-100.00,North,0,0.0,-999.0,88,-99.99,,,-99.99,,2013-04-15 13:43:00,
2013-04-15 08:53:00,30.0,28.0,-100.00,North,0,0.0,-999.0,89,-99.99,,,-99.99,,2013-04-15 13:53:00,
2013-04-15 09:05:00,30.0,28.0,-100.00,North,0,0.0,-999.0,89,-99.99,,,-99.99,,2013-04-15 14:05:00,
2013-04-15 09:13:00,31.0,27.0,-100.00,North,0,0.0,-999.0,86,-99.99,,,-99.99,,2013-04-15 14:13:00,
2013-04-15 09:22:00,31.0,28.0,-100.00,North,0,0.0,-999.0,86,-99.99,,,-99.99,,2013-04-15 14:22:00,
2013-04-15 09:33:00,31.0,28.0,-100.00,North,0,0.0,-999.0,86,-99.99,,,-99.99,,2013-04-15 14:33:00,
2013-04-15 09:44:00,31.0,27.0,-100.00,North,0,0.0,-999.0,85,-99.99,,,-99.99,,2013-04-15 14:44:00,
2013-04-15 09:54:00,32.0,28.0,-100.00,North,0,0.0,-999.0,84,-99.99,,,-99.99,,2013-04-15 14:54:00,
2013-04-15 10:03:00,33.0,28.0,-100.00,North,0,0.0,-999.0,83,-99.99,,,-99.99,,2013-04-15 15:03:00,
2013-04-15 10:13:00,33.0,28.0,-100.00,North,0,0.0,-999.0,81,-99.99,,,-99.99,,2013-04-15 15:13:00,
2013-04-15 10:24:00,34.0,28.0,-100.00,North,0,0.0,-999.0,80,-99.99,,,-99.99,,2013-04-15 15:24:00,
2013-04-15 10:35:00,34.0,28.0,-100.00,North,0,0.0,-999.0,80,-99.99,,,-99.99,,2013-04-15 15:35:00,
2013-04-15 10:44:00,34.0,29.0,-100.00,North,0,0.0,-999.0,80,-99.99,,,-99.99,,2013-04-15 15:44:00,
2013-04-15 10:53:00,34.0,28.0,-100.00,North,0,0.0,-999.0,80,-99.99,,,-99.99,,2013-04-15 15:53:00,
2013-04-15 11:04:00,34.0,28.0,-100.00,North,0,0.0,-999.0,79,-99.99,,,-99.99,,2013-04-15 16:04:00,
2013-04-15 11:13:00,34.0,28.0,-100.00,North,0,0.0,-999.0,78,-99.99,,,-99.99,,2013-04-15 16:13:00,
2013-04-15 11:24:00,35.0,27.0,-100.00,North,0,0.0,-999.0,75,-99.99,,,-99.99,,2013-04-15 16:24:00,
2013-04-15 11:33:00,35.0,20.0,-100.00,North,0,0.0,-999.0,53,-99.99,,,-99.99,,2013-04-15 16:33:00,
2013-04-15 11:44:00,35.0,25.0,-100.00,North,0,0.0,-999.0,65,-99.99,,,-99.99,,2013-04-15 16:44:00,
2013-04-15 11:53:00,36.0,29.0,-100.00,North,0,0.0,-999.0,76,-99.99,,,-99.99,,2013-04-15 16:53:00,
2013-04-15 12:03:00,35.0,28.0,-100.00,North,0,0.0,-999.0,74,-99.99,,,-99.99,,2013-04-15 17:03:00,
2013-04-15 12:15:00,35.0,17.0,-100.00,North,0,0.0,-999.0,48,-99.99,,,-99.99,,2013-04-15 17:15:00,
2013-04-15 12:22:00,35.0,24.0,-100.00,North,0,0.0,-999.0,64,-99.99,,,-99.99,,2013-04-15 17:22:00,
2013-04-15 12:33:00,35.0,23.0,-100.00,North,0,0.0,-999.0,60,-99.99,,,-99.99,,2013-04-15 17:33:00,
2013-04-15 12:43:00,36.0,24.0,-100.00,North,0,0.0,-999.0,60,-99.99,,,-99.99,,2013-04-15 17:43:00,
2013-04-15 12:52:00,36.0,23.0,-100.00,North,0,0.0,-999.0,59,-99.99,,,-99.99,,2013-04-15 17:52:00,
2013-04-15 13:03:00,37.0,24.0,-100.00,WNW,296,3.0,-999.0,58,-99.99,,,-99.99,,2013-04-15 18:03:00,
2013-04-15 13:12:00,38.0,30.0,-100.00,WNW,298,5.0,-999.0,74,-99.99,,,-99.99,,2013-04-15 18:12:00,
2013-04-15 13:23:00,38.0,30.0,-100.00,WNW,295,37.0,-999.0,72,-99.99,,,-99.99,,2013-04-15 18:23:00,
2013-04-15 13:33:00,39.0,30.0,-100.00,WNW,290,8.0,-999.0,71,-99.99,,,-99.99,,2013-04-15 18:33:00,
2013-04-15 13:42:00,39.0,29.0,-100.00,West,280,26.0,-999.0,69,-99.99,,,-99.99,,2013-04-15 18:42:00,
2013-04-15 13:52:00,39.0,31.0,-100.00,West,280,27.0,-999.0,71,-99.99,,,-99.99,,2013-04-15 18:52:00,
2013-04-15 14:02:00,39.0,31.0,-100.00,West,280,8.0,-999.0,72,-99.99,,,-99.99,,2013-04-15 19:02:00,
2013-04-15 14:12:00,39.0,30.0,-100.00,WNW,284,6.0,-999.0,70,-99.99,,,-99.99,,2013-04-15 19:12:00,
2013-04-15 14:22:00,40.0,31.0,-100.00,West,277,8.0,-999.0,70,-99.99,,,-99.99,,2013-04-15 19:22:00,
2013-04-15 14:52:00,42.0,32.0,-100.00,WNW,292,4.0,-999.0,67,-99.99,,,-99.99,,2013-04-15 19:52:00,
2013-04-15 14:58:00,42.0,31.0,-100.00,West,273,1.0,-999.0,64,-99.99,,,-99.99,,2013-04-15 19:58:00,
2013-04-15 15:02:00,42.0,31.0,-100.00,West,273,1.0,-999.0,64,-99.99,,,-99.99,,2013-04-15 20:02:00,
2013-04-15 15:11:00,42.0,31.0,-100.00,West,273,1.0,-999.0,64,-99.99,,,-99.99,,2013-04-15 20:11:00,
2013-04-15 15:22:00,41.0,30.0,-100.00,NW,307,24.0,-999.0,65,-99.99,,,-99.99,,2013-04-15 20:22:00,
2013-04-15 15:32:00,43.0,32.0,-100.00,NW,305,13.0,-999.0,65,-99.99,,,-99.99,,2013-04-15 20:32:00,
2013-04-15 15:42:00,43.0,31.0,-100.00,West,280,2.0,-999.0,63,-99.99,,,-99.99,,2013-04-15 20:42:00,
2013-04-15 15:52:00,44.0,33.0,-100.00,WNW,293,12.0,-999.0,65,-99.99,,,-99.99,,2013-04-15 20:52:00,
2013-04-15 16:02:00,43.0,31.0,-100.00,WNW,292,30.0,-999.0,62,-99.99,,,-99.99,,2013-04-15 21:02:00,
2013-04-15 16:12:00,42.0,29.0,-100.00,WNW,301,27.0,-999.0,61,-99.99,,,-99.99,,2013-04-15 21:12:00,
2013-04-15 16:22:00,42.0,30.0,-100.00,WNW,285,7.0,-999.0,63,-99.99,,,-99.99,,2013-04-15 21:22:00,
2013-04-15 16:33:00,43.0,30.0,-100.00,NW,314,32.0,-999.0,60,-99.99,,,-99.99,,2013-04-15 21:33:00,
2013-04-15 16:43:00,43.0,30.0,-100.00,NW,311,17.0,-999.0,59,-99.99,,,-99.99,,2013-04-15 21:43:00,
2013-04-15 16:53:00,43.0,30.0,-100.00,West,281,2.0,-999.0,60,-99.99,,,-99.99,,2013-04-15 21:53:00,
2013-04-15 17:02:00,42.0,30.0,-100.00,NNW,337,19.0,-999.0,60,-99.99,,,-99.99,,2013-04-15 22:02:00,
2013-04-15 17:13:00,44.0,31.0,-100.00,NW,307,17.0,-999.0,61,-99.99,,,-99.99,,2013-04-15 22:13:00,
2013-04-15 17:23:00,42.0,29.0,-100.00,WNW,299,23.0,-999.0,59,-99.99,,,-99.99,,2013-04-15 22:23:00,
2013-04-15 17:33:00,42.0,28.0,-100.00,WNW,291,24.0,-999.0,58,-99.99,,,-99.99,,2013-04-15 22:33:00,
2013-04-15 17:42:00,42.0,29.0,-100.00,NW,316,25.0,-999.0,61,-99.99,,,-99.99,,2013-04-15 22:42:00,
2013-04-15 17:52:00,43.0,30.0,-100.00,WNW,296,21.0,-999.0,61,-99.99,,,-99.99,,2013-04-15 22:52:00,
2013-04-15 18:02:00,42.0,29.0,-100.00,WNW,303,17.0,-999.0,62,-99.99,,,-99.99,,2013-04-15 23:02:00,
2013-04-15 18:12:00,42.0,30.0,-100.00,WNW,297,15.0,-999.0,63,-99.99,,,-99.99,,2013-04-15 23:12:00,
2013-04-15 18:22:00,41.0,29.0,-100.00,NW,310,32.0,-999.0,60,-99.99,,,-99.99,,2013-04-15 23:22:00,
2013-04-15 18:32:00,41.0,29.0,-100.00,NW,306,22.0,-999.0,62,-99.99,,,-99.99,,2013-04-15 23:32:00,
2013-04-15 18:42:00,40.0,28.0,-100.00,NW,316,18.0,-999.0,62,-99.99,,,-99.99,,2013-04-15 23:42:00,
2013-04-15 18:52:00,40.0,28.0,-100.00,NW,304,30.0,-999.0,61,-99.99,,,-99.99,,2013-04-15 23:52:00,
2013-04-15 19:02:00,40.0,29.0,-100.00,NNW,342,4.0,-999.0,63,-99.99,,,-99.99,,2013-04-16 00:02:00,
2013-04-15 19:12:00,40.0,30.0,-100.00,NNW,333,21.0,-999.0,68,-99.99,,,-99.99,,2013-04-16 00:12:00,
2013-04-15 19:22:00,40.0,31.0,-100.00,NNW,341,12.0,-999.0,70,-99.99,,,-99.99,,2013-04-16 00:22:00,
2013-04-15 19:32:00,39.0,31.0,-100.00,NNW,329,5.0,-999.0,72,-99.99,,,-99.99,,2013-04-16 00:32:00,
2013-04-15 19:42:00,39.0,31.0,-100.00,NNW,329,5.0,-999.0,72,-99.99,,,-99.99,,2013-04-16 00:42:00,
2013-04-15 19:52:00,39.0,30.0,-100.00,NW,316,23.0,-999.0,70,-99.99,,,-99.99,,2013-04-16 00:52:00,
2013-04-15 20:02:00,39.0,31.0,-100.00,NNW,344,1.0,-999.0,74,-99.99,,,-99.99,,2013-04-16 01:02:00,
2013-04-15 20:12:00,38.0,30.0,-100.00,NNW,338,0.0,-999.0,73,-99.99,,,-99.99,,2013-04-16 01:12:00,
2013-04-15 20:22:00,37.0,31.0,-100.00,North,0,0.0,-999.0,78,-99.99,,,-99.99,,2013-04-16 01:22:00,
2013-04-15 20:32:00,37.0,31.0,-100.00,NNW,328,0.0,-999.0,79,-99.99,,,-99.99,,2013-04-16 01:32:00,
2013-04-15 20:42:00,37.0,31.0,-100.00,NNW,330,0.0,-999.0,80,-99.99,,,-99.99,,2013-04-16 01:42:00,
2013-04-15 20:52:00,37.0,32.0,-100.00,North,0,0.0,-999.0,82,-99.99,,,-99.99,,2013-04-16 01:52:00,
2013-04-15 21:02:00,37.0,32.0,-100.00,North,0,0.0,-999.0,82,-99.99,,,-99.99,,2013-04-16 02:02:00,
2013-04-15 21:12:00,36.0,32.0,-100.00,North,0,0.0,-999.0,84,-99.99,,,-99.99,,2013-04-16 02:12:00,
2013-04-15 21:22:00,36.0,32.0,-100.00,North,0,0.0,-999.0,86,-99.99,,,-99.99,,2013-04-16 02:22:00,
2013-04-15 21:32:00,36.0,32.0,-100.00,North,0,0.0,-999.0,87,-99.99,,,-99.99,,2013-04-16 02:32:00,
2013-04-15 21:42:00,35.0,32.0,-100.00,North,0,0.0,-999.0,89,-99.99,,,-99.99,,2013-04-16 02:42:00,
2013-04-15 21:52:00,35.0,32.0,-100.00,North,0,0.0,-999.0,91,-99.99,,,-99.99,,2013-04-16 02:52:00,
2013-04-15 22:02:00,34.0,33.0,-100.00,North,0,0.0,-999.0,95,-99.99,,,-99.99,,2013-04-16 03:02:00,
2013-04-15 22:12:00,33.0,32.0,-100.00,North,-999,0.0,-999.0,96,-99.99,,,-99.99,,2013-04-16 03:12:00,
2013-04-15 22:22:00,33.0,-99.9,-100.00,North,-999,0.0,-999.0,-999,-99.99,,,-99.99,,2013-04-16 03:22:00,
2013-04-15 22:33:00,32.0,-99.9,-100.00,North,-999,0.0,-999.0,-999,-99.99,,,-99.99,,2013-04-16 03:33:00,
2013-04-15 22:43:00,32.0,-99.9,-100.00,North,0,0.0,-999.0,-999,-99.99,,,-99.99,,2013-04-16 03:43:00,
2013-04-15 22:53:00,32.0,-99.9,-100.00,North,0,0.0,-999.0,-999,-99.99,,,-99.99,,2013-04-16 03:53:00,
2013-04-15 23:03:00,32.0,-99.9,-100.00,North,0,0.0,-999.0,-999,-99.99,,,-99.99,,2013-04-16 04:03:00,
2013-04-15 23:13:00,31.0,-99.9,-100.00,North,0,0.0,-999.0,-999,-99.99,,,-99.99,,2013-04-16 04:13:00,
2013-04-15 23:23:00,30.0,-99.9,-100.00,North,0,0.0,-999.0,-999,-99.99,,,-99.99,,2013-04-16 04:23:00,
2013-04-15 23:33:00,30.0,-99.9,-100.00,North,-999,0.0,-999.0,-999,-99.99,,,-99.99,,2013-04-16 04:33:00,
2013-04-15 23:43:00,30.0,-99.9,-100.00,North,-999,0.0,-999.0,-999,-99.99,,,-99.99,,2013-04-16 04:43:00,
2013-04-15 23:53:00,30.0,-99.9,-100.00,North,0,0.0,-999.0,-999,-99.99,,,-99.99,,2013-04-16 04:53:00,